Time;durP1;ratioP1;P1;durP2;ratioP2;P2;SDS_P1;SDS_P2;PMS_P1;PMS_P2;Temp;Humidity;BMP_temperature;BMP_pressure;BME280_temperature;BME280_humidity;BME280_pressure;Samples;Min_cycle;Max_cycle;Signal;HPM_P1;HPM_P2
2024/03/31 00:01:07;;;;;;;23.80;18.70;;;;;;;30.57;83.46;101211.69;5033184;28;70201;-29
2024/03/31 00:03:40;;;;;;;21.67;18.38;;;;;;;30.57;81.44;101222.53;5009409;28;65259;-29
2024/03/31 00:06:08;;;;;;;;;;;;;;;30.53;84.08;101225.84;5034261;28;69800;-30
2024/03/31 00:08:38;;;;;;;20.77;18.88;;;;;;;30.60;81.74;101223.97;5052362;28;66564;-30
2024/03/31 00:11:07;;;;;;;20.30;18.27;;;;;;;30.68;81.56;101240.84;5053820;28;70864;-29
2024/03/31 00:13:36;;;;;;;19.48;17.60;;;;;;;30.70;83.04;101237.91;5035371;28;66304;-29
2024/03/31 00:16:06;;;;;;;22.95;20.52;;;;;;;30.71;82.98;101245.81;5018026;28;70311;-29
2024/03/31 00:18:35;;;;;;;24.90;22.10;;;;;;;30.77;84.16;101248.75;5024413;28;66548;-29
2024/03/31 00:21:04;;;;;;;31.50;24.63;;;;;;;30.80;86.28;101249.19;5029021;28;70260;-29
2024/03/31 00:23:33;;;;;;;33.75;24.80;;;;;;;30.80;86.13;101254.59;5029037;28;66011;-29
2024/03/31 00:26:02;;;;;;;33.63;26.70;;;;;;;30.83;85.86;101258.75;5037886;28;70514;-29
2024/03/31 00:28:31;;;;;;;36.55;26.67;;;;;;;30.79;86.65;101258.31;5038296;28;66461;-29
2024/03/31 00:31:00;;;;;;;33.17;28.05;;;;;;;30.80;86.71;101262.72;5033940;28;69463;-30
2024/03/31 00:33:29;;;;;;;31.55;26.98;;;;;;;30.81;86.76;101260.84;5030690;28;65606;-30
2024/03/31 00:35:58;;;;;;;29.73;26.08;;;;;;;30.88;87.31;101267.91;5038544;28;67886;-29
2024/03/31 00:38:27;;;;;;;34.95;26.88;;;;;;;30.90;87.39;101270.44;5019127;28;66594;-30
2024/03/31 00:40:56;;;;;;;30.77;26.48;;;;;;;30.92;86.56;101271.03;5018085;28;70389;-29
2024/03/31 00:43:25;;;;;;;30.92;26.95;;;;;;;30.92;88.25;101282.72;4992972;28;66277;-30
2024/03/31 00:45:54;;;;;;;32.17;26.63;;;;;;;30.97;87.38;101282.06;5026565;28;69985;-30
2024/03/31 00:48:23;;;;;;;28.70;25.15;;;;;;;31.01;87.19;101282.47;5023509;28;66546;-31
2024/03/31 00:50:52;;;;;;;28.00;25.08;;;;;;;31.03;88.81;101292.06;5027678;28;70150;-32
2024/03/31 00:53:21;;;;;;;26.95;23.15;;;;;;;31.06;87.24;101291.63;5041972;28;66412;-29
2024/03/31 00:55:50;;;;;;;26.10;21.10;;;;;;;31.01;87.54;101283.31;5024809;28;69227;-30
2024/03/31 00:58:19;;;;;;;25.83;23.10;;;;;;;31.08;88.45;101278.69;5027576;28;65690;-32
2024/03/31 01:00:48;;;;;;;25.70;22.83;;;;;;;31.12;87.48;101279.97;5025123;28;70397;-30
2024/03/31 01:03:30;;;;;;;29.77;23.10;;;;;;;31.16;90.94;101286.59;5012331;28;66387;-30
2024/03/31 01:06:05;;;;;;;34.38;22.73;;;;;;;31.16;89.00;101281.19;5025426;28;69678;-30
2024/03/31 01:08:34;;;;;;;23.63;21.23;;;;;;;31.22;88.15;101278.66;5005904;28;66577;-30
2024/03/31 01:11:03;;;;;;;27.83;20.85;;;;;;;31.24;87.48;101271.16;5003860;28;70646;-30
2024/03/31 01:13:33;;;;;;;28.13;21.55;;;;;;;31.28;88.54;101261.56;5028117;28;65632;-29
2024/03/31 01:16:08;;;;;;;26.33;21.02;;;;;;;31.28;87.93;101273.22;5017320;28;69518;-29
2024/03/31 01:18:37;;;;;;;23.77;21.48;;;;;;;31.31;87.47;101280.09;5040983;28;66527;-31
2024/03/31 01:21:13;;;;;;;27.52;21.27;;;;;;;31.34;88.19;101287.78;5026668;28;70258;-29
2024/03/31 01:23:45;;;;;;;24.88;21.02;;;;;;;31.38;89.57;101278.25;5004966;28;66265;-29
2024/03/31 01:26:14;;;;;;;23.30;20.67;;;;;;;31.37;87.29;101276.56;5040835;28;70424;-31
2024/03/31 01:28:43;;;;;;;25.95;20.88;;;;;;;31.41;88.31;101282.41;5026077;28;65783;-29
2024/03/31 01:31:14;;;;;;;26.35;19.92;;;;;;;31.43;87.61;101275.72;5014712;28;69570;-30
2024/03/31 01:33:44;;;;;;;22.80;20.52;;;;;;;31.39;88.04;101258.19;5019032;28;66586;-30
2024/03/31 01:36:13;;;;;;;20.45;18.55;;;;;;;31.49;87.46;101261.28;5020892;28;69464;-29
2024/03/31 01:38:42;;;;;;;25.38;20.77;;;;;;;31.51;87.65;101267.34;5034424;28;65741;-31
2024/03/31 01:41:11;;;;;;;21.58;19.45;;;;;;;31.56;87.42;101274.81;5031412;28;70470;-30
2024/03/31 01:43:41;;;;;;;21.98;19.73;;;;;;;31.58;87.65;101272.72;5014153;28;66200;-29
2024/03/31 01:46:10;;;;;;;22.38;20.25;;;;;;;31.59;88.46;101275.22;5029893;28;69599;-32
2024/03/31 01:48:39;;;;;;;22.92;19.63;;;;;;;31.65;88.27;101283.53;5032262;28;65773;-31
2024/03/31 01:51:08;;;;;;;22.80;20.45;;;;;;;31.66;87.61;101286.03;4989820;28;70179;-29
2024/03/31 01:53:37;;;;;;;20.30;18.48;;;;;;;31.73;87.16;101283.28;5031830;28;65086;-30
2024/03/31 01:56:06;;;;;;;21.45;19.25;;;;;;;31.69;87.42;101274.75;5033661;28;70628;-30
2024/03/31 01:58:35;;;;;;;21.73;19.77;;;;;;;31.80;87.97;101282.19;5021135;28;65916;-31
2024/03/31 02:01:04;;;;;;;22.50;19.67;;;;;;;31.84;89.02;101279.88;5011561;28;71041;-34
2024/03/31 02:03:33;;;;;;;21.20;19.20;;;;;;;31.87;88.30;101295.72;5021529;28;66605;-31
2024/03/31 02:06:09;;;;;;;20.95;18.52;;;;;;;31.90;89.32;101287.19;5021151;28;70499;-32
2024/03/31 02:08:38;;;;;;;29.80;18.73;;;;;;;31.94;88.07;101288.41;5017044;28;66322;-30
2024/03/31 02:11:07;;;;;;;21.20;17.70;;;;;;;31.99;86.59;101285.88;5027641;28;69765;-31
2024/03/31 02:13:36;;;;;;;19.73;16.77;;;;;;;32.02;86.27;101282.72;5024893;28;65297;-35
2024/03/31 02:16:05;;;;;;;18.33;16.63;;;;;;;32.09;85.81;101284.56;5012145;28;70102;-32
2024/03/31 02:18:35;;;;;;;18.52;16.65;;;;;;;32.15;85.71;101283.69;5031849;28;66003;-31
2024/03/31 02:21:05;;;;;;;17.98;16.38;;;;;;;32.12;85.55;101273.28;5005350;28;70125;-29
2024/03/31 02:23:35;;;;;;;18.95;17.27;;;;;;;32.22;85.13;101279.88;4994781;28;65902;-32
2024/03/31 02:26:04;;;;;;;18.05;16.55;;;;;;;32.25;85.14;101284.88;5020071;28;69505;-32
2024/03/31 02:28:36;;;;;;;;;;;;;;;32.20;87.07;101281.16;5024206;28;66470;-32
2024/03/31 02:31:05;;;;;;;19.35;16.55;;;;;;;32.34;84.88;101279.16;5003865;28;68962;-30
2024/03/31 02:33:35;;;;;;;18.48;16.85;;;;;;;32.37;84.33;101276.84;5006625;28;66158;-34
2024/03/31 02:36:05;;;;;;;18.08;16.45;;;;;;;32.25;84.13;101235.19;5008389;28;70095;-31
2024/03/31 02:38:34;;;;;;;17.15;15.80;;;;;;;32.44;84.22;101261.31;5016229;28;66634;-31
2024/03/31 02:41:04;;;;;;;17.25;15.75;;;;;;;32.47;84.01;101260.91;5012006;28;69979;-31
2024/03/31 02:43:33;;;;;;;17.98;16.45;;;;;;;32.49;83.92;101256.09;5007874;28;65810;-31
2024/03/31 02:46:02;;;;;;;18.45;16.60;;;;;;;32.56;83.79;101257.91;5035741;28;71269;-31
2024/03/31 02:48:33;;;;;;;18.73;17.00;;;;;;;32.58;83.62;101262.06;4990252;28;65833;-30
2024/03/31 02:51:06;;;;;;;20.17;15.43;;;;;;;32.62;83.38;101251.59;5003204;28;70131;-29
2024/03/31 02:53:35;;;;;;;18.08;15.48;;;;;;;32.63;83.37;101242.41;5033183;28;65476;-31
2024/03/31 02:56:05;;;;;;;16.95;15.32;;;;;;;32.69;83.06;101245.03;5016783;28;70201;-30
2024/03/31 02:58:34;;;;;;;16.55;15.07;;;;;;;32.70;83.13;101237.72;4979688;28;66103;-31
2024/03/31 03:01:04;;;;;;;15.77;14.70;;;;;;;32.73;82.91;101237.28;5010729;28;70006;-31
2024/03/31 03:03:34;;;;;;;16.38;14.70;;;;;;;32.80;82.72;101237.22;5022201;28;66586;-30
2024/03/31 03:06:03;;;;;;;17.20;15.55;;;;;;;32.84;83.03;101239.25;5009055;28;70660;-30
2024/03/31 03:08:33;;;;;;;17.17;15.52;;;;;;;32.87;82.57;101244.22;5025823;28;65984;-31
2024/03/31 03:11:03;;;;;;;15.63;14.40;;;;;;;32.90;82.48;101238.38;5013098;28;70432;-31
2024/03/31 03:13:34;;;;;;;15.27;14.18;;;;;;;32.93;82.11;101237.91;5038430;28;65318;-30
2024/03/31 03:16:04;;;;;;;16.50;15.13;;;;;;;32.92;81.93;101225.34;5022587;28;69468;-31
2024/03/31 03:18:34;;;;;;;15.68;14.43;;;;;;;33.01;82.00;101238.69;5007578;28;65253;-30
2024/03/31 03:21:04;;;;;;;17.17;15.43;;;;;;;33.05;81.72;101232.56;5041028;28;70389;-32
2024/03/31 03:23:33;;;;;;;16.02;14.57;;;;;;;33.09;81.72;101225.63;5005141;28;66331;-29
2024/03/31 03:26:02;;;;;;;15.88;14.68;;;;;;;33.14;81.37;101222.22;5022887;28;70087;-30
2024/03/31 03:28:31;;;;;;;15.95;14.13;;;;;;;33.18;81.54;101220.69;5034893;28;66579;-31
2024/03/31 03:31:03;;;;;;;14.38;13.38;;;;;;;33.01;81.59;101185.16;5007300;28;70791;-30
2024/03/31 03:33:33;;;;;;;16.52;15.02;;;;;;;33.20;81.42;101205.00;5014247;28;65238;-30
2024/03/31 03:36:04;;;;;;;16.52;14.75;;;;;;;32.93;81.06;101156.38;5019946;28;70323;-34
2024/03/31 03:38:34;;;;;;;14.40;13.25;;;;;;;33.29;81.00;101208.22;5020089;28;65826;-31
2024/03/31 03:41:04;;;;;;;;;;;;;;;33.27;81.44;101205.75;5015023;28;70043;-30
2024/03/31 03:43:33;;;;;;;14.52;13.43;;;;;;;33.38;80.71;101191.38;5031663;28;65460;-31
2024/03/31 03:46:10;;;;;;;13.88;12.75;;;;;;;33.40;80.57;101193.03;5025788;28;69384;-30
2024/03/31 03:48:40;;;;;;;14.70;13.68;;;;;;;33.44;80.49;101191.53;4988370;28;65879;-31
2024/03/31 03:51:09;;;;;;;14.13;12.85;;;;;;;33.48;80.45;101195.44;4977409;28;69363;-34
2024/03/31 03:53:38;;;;;;;14.10;13.00;;;;;;;33.49;80.43;101186.19;5026190;28;66547;-35
2024/03/31 03:56:09;;;;;;;13.77;12.63;;;;;;;33.49;80.72;101180.75;5035136;28;70270;-29
2024/03/31 03:58:38;;;;;;;12.90;11.90;;;;;;;33.51;80.75;101174.03;5006591;28;66671;-30
2024/03/31 04:01:07;;;;;;;13.43;12.25;;;;;;;33.60;80.28;101182.75;5005201;28;70110;-33
2024/03/31 04:03:37;;;;;;;12.38;11.43;;;;;;;33.62;80.27;101183.31;5012552;28;66215;-30
2024/03/31 04:06:07;;;;;;;12.70;11.77;;;;;;;33.62;80.63;101174.34;5021509;28;69608;-31
2024/03/31 04:08:36;;;;;;;12.25;11.27;;;;;;;33.63;80.25;101165.09;5021826;28;66299;-31
2024/03/31 04:11:06;;;;;;;12.38;11.50;;;;;;;33.69;80.19;101170.47;5015187;28;70056;-30
2024/03/31 04:13:35;;;;;;;12.20;11.15;;;;;;;33.72;80.18;101175.44;5015571;28;66689;-31
2024/03/31 04:16:04;;;;;;;14.05;11.52;;;;;;;33.63;81.03;101165.97;5015978;28;69973;-30
2024/03/31 04:18:38;;;;;;;12.48;11.20;;;;;;;33.67;80.97;101160.88;5013804;28;65823;-32
2024/03/31 04:21:09;;;;;;;11.73;10.50;;;;;;;33.61;81.28;101149.03;5025469;28;69596;-30
2024/03/31 04:23:39;;;;;;;11.52;10.75;;;;;;;33.64;81.54;101151.28;5049145;28;65980;-31
2024/03/31 04:26:08;;;;;;;15.60;10.00;;;;;;;33.68;81.54;101148.91;5023745;28;69953;-33
2024/03/31 04:28:38;;;;;;;11.88;10.50;;;;;;;33.67;81.67;101134.50;5008936;28;66274;-30
2024/03/31 04:31:08;;;;;;;13.27;10.15;;;;;;;33.72;81.39;101139.25;5019539;28;69844;-32
2024/03/31 04:33:39;;;;;;;11.32;10.27;;;;;;;33.72;81.26;101134.63;5021120;28;66613;-32
2024/03/31 04:36:12;;;;;;;11.07;10.38;;;;;;;33.73;81.67;101139.00;5025486;28;70557;-30
2024/03/31 04:38:42;;;;;;;11.13;10.35;;;;;;;33.76;81.43;101127.63;5012843;28;65724;-31
2024/03/31 04:41:12;;;;;;;18.42;10.73;;;;;;;33.84;81.18;101122.94;4994331;28;70196;-32
2024/03/31 04:43:45;;;;;;;15.15;9.13;;;;;;;33.81;81.11;101122.31;5003927;28;66585;-31
2024/03/31 04:46:14;;;;;;;9.70;9.07;;;;;;;33.84;80.90;101117.50;5031165;28;68971;-31
2024/03/31 04:48:44;;;;;;;12.05;9.77;;;;;;;33.87;80.72;101111.56;5011820;28;65753;-32
2024/03/31 04:51:14;;;;;;;10.48;9.68;;;;;;;33.92;80.60;101111.69;5013794;28;69631;-32
2024/03/31 04:53:43;;;;;;;10.10;9.40;;;;;;;33.92;81.00;101098.91;4983661;28;65531;-29
2024/03/31 04:56:12;;;;;;;10.90;10.00;;;;;;;33.84;80.92;101073.94;5003601;28;70236;-31
2024/03/31 04:58:42;;;;;;;9.60;8.75;;;;;;;33.96;81.41;101085.66;4988678;28;65834;-32
2024/03/31 05:01:11;;;;;;;10.35;9.50;;;;;;;33.98;81.23;101075.38;5026257;28;70498;-32
2024/03/31 05:03:41;;;;;;;10.68;9.75;;;;;;;33.90;81.48;101071.09;5006905;28;66333;-31
2024/03/31 05:06:10;;;;;;;10.32;9.38;;;;;;;34.03;81.45;101072.75;5026136;28;70320;-31
2024/03/31 05:08:39;;;;;;;11.93;9.45;;;;;;;34.08;81.58;101067.47;5026492;28;65585;-31
2024/03/31 05:11:10;;;;;;;11.85;10.07;;;;;;;34.02;81.46;101054.78;5021712;28;69331;-32
2024/03/31 05:13:40;;;;;;;10.18;9.35;;;;;;;34.14;81.73;101058.34;5019121;28;66494;-31
2024/03/31 05:16:14;;;;;;;10.23;9.43;;;;;;;34.16;82.12;101050.78;5021490;28;70122;-31
2024/03/31 05:18:44;;;;;;;10.88;9.77;;;;;;;34.15;82.15;101042.84;5056278;28;66159;-30
2024/03/31 05:21:17;;;;;;;9.77;9.00;;;;;;;34.11;81.84;101026.16;5033304;28;70379;-32
2024/03/31 05:23:47;;;;;;;10.63;9.50;;;;;;;34.15;81.58;101027.31;5033321;28;66324;-31
2024/03/31 05:26:22;;;;;;;10.25;9.43;;;;;;;34.19;81.39;101016.81;5035989;28;70616;-30
2024/03/31 05:28:53;;;;;;;8.87;8.33;;;;;;;34.15;79.37;101021.06;5036132;28;66815;-32
2024/03/31 05:31:23;;;;;;;9.75;8.88;;;;;;;34.12;78.04;101016.91;5010712;28;70365;-32
2024/03/31 05:34:12;;;;;;;8.80;8.30;;;;;;;34.04;75.98;101003.63;5029245;28;66862;-30
2024/03/31 05:36:43;;;;;;;;;;;;;;;33.97;72.89;100997.53;5018340;28;69847;-31
2024/03/31 05:39:13;;;;;;;7.50;7.03;;;;;;;34.04;73.01;100990.03;5033445;28;66597;-34
2024/03/31 05:41:42;;;;;;;8.48;7.65;;;;;;;33.99;73.04;100992.63;5030130;28;69589;-31
2024/03/31 05:44:11;;;;;;;11.52;7.20;;;;;;;34.02;73.71;100984.84;5036189;28;65631;-31
2024/03/31 05:46:42;;;;;;;;;;;;;;;33.91;72.89;100980.25;5022644;28;70056;-32
2024/03/31 05:49:12;;;;;;;8.07;7.22;;;;;;;34.07;72.89;100981.41;5049756;28;66680;-31
2024/03/31 05:51:43;;;;;;;7.00;6.50;;;;;;;34.01;72.00;100975.00;5038558;28;70254;-31
2024/03/31 05:54:12;;;;;;;13.20;7.13;;;;;;;33.98;71.24;100967.31;5029315;28;66110;-31
2024/03/31 05:56:41;;;;;;;12.55;7.10;;;;;;;34.00;70.99;100965.19;5014128;28;70493;-31
2024/03/31 05:59:11;;;;;;;8.48;6.47;;;;;;;33.90;69.54;100964.16;5002927;28;65196;-30
2024/03/31 06:01:40;;;;;;;10.85;6.78;;;;;;;33.92;69.95;100945.69;5003575;28;69137;-30
2024/03/31 06:04:09;;;;;;;13.77;6.65;;;;;;;33.93;68.60;100947.34;5000221;28;65596;-30
2024/03/31 06:06:38;;;;;;;9.10;5.50;;;;;;;33.92;68.70;100945.69;5038926;28;70235;-31
2024/03/31 06:09:08;;;;;;;8.27;5.60;;;;;;;33.87;67.90;100932.78;5035818;28;65700;-32
2024/03/31 06:11:37;;;;;;;5.90;5.35;;;;;;;33.88;67.14;100929.03;5017211;28;70348;-30
2024/03/31 06:14:08;;;;;;;9.38;5.75;;;;;;;33.88;66.75;100928.19;5036499;28;66486;-31
2024/03/31 06:16:38;;;;;;;5.90;5.50;;;;;;;33.84;66.05;100924.28;5020422;28;69633;-33
2024/03/31 06:19:07;;;;;;;5.70;5.20;;;;;;;33.90;65.91;100915.16;5001152;28;65924;-31
2024/03/31 06:21:37;;;;;;;5.88;5.47;;;;;;;33.81;65.49;100917.44;5010557;28;70087;-32
2024/03/31 06:24:07;;;;;;;6.50;5.68;;;;;;;33.80;64.18;100903.00;5012793;28;66749;-30
2024/03/31 06:26:37;;;;;;;7.50;5.13;;;;;;;33.84;65.06;100905.25;5030679;28;70436;-31
2024/03/31 06:29:06;;;;;;;7.30;5.32;;;;;;;33.80;63.43;100905.72;5033703;28;65650;-33
2024/03/31 06:31:41;;;;;;;;;;;;;;;33.76;61.45;100909.97;5033546;28;69936;-31
2024/03/31 06:34:10;;;;;;;5.47;4.88;;;;;;;33.83;65.16;100892.72;5024532;28;68504;-31
2024/03/31 06:36:39;;;;;;;5.15;4.85;;;;;;;33.86;63.58;100887.63;5020714;28;70845;-32
2024/03/31 06:39:09;;;;;;;5.07;4.78;;;;;;;33.91;64.13;100881.47;5040621;28;66568;-31
2024/03/31 06:41:39;;;;;;;5.25;4.85;;;;;;;33.88;62.70;100873.75;5018244;28;69648;-31
2024/03/31 06:44:08;;;;;;;6.65;4.63;;;;;;;33.88;61.66;100885.50;5036434;28;66202;-31
2024/03/31 06:46:38;;;;;;;4.80;4.50;;;;;;;33.72;62.37;100846.25;5028520;28;70788;-33
2024/03/31 06:49:07;;;;;;;5.10;4.80;;;;;;;33.86;61.66;100875.91;5020423;28;66503;-31
2024/03/31 06:51:36;;;;;;;4.43;4.13;;;;;;;33.91;62.94;100867.84;5014926;28;70228;-30
2024/03/31 06:54:05;;;;;;;4.72;4.43;;;;;;;33.87;61.19;100855.78;5002346;28;66371;-32
2024/03/31 06:56:37;;;;;;;5.28;4.90;;;;;;;33.93;62.15;100855.63;5014713;28;70691;-33
2024/03/31 06:59:07;;;;;;;4.72;4.53;;;;;;;33.90;61.68;100838.97;5021830;28;66337;-31
2024/03/31 07:01:38;;;;;;;4.72;4.53;;;;;;;33.90;60.68;100844.41;5030358;28;69960;-31
2024/03/31 07:04:13;;;;;;;5.20;4.80;;;;;;;33.95;60.14;100839.06;5009487;28;66775;-31
2024/03/31 07:06:43;;;;;;;4.88;4.50;;;;;;;33.92;61.64;100836.84;5031089;28;70544;-31
2024/03/31 07:09:12;;;;;;;5.30;4.93;;;;;;;33.91;60.13;100835.19;5027356;28;66468;-29
2024/03/31 07:11:45;;;;;;;4.45;4.25;;;;;;;33.97;61.53;100817.91;5011293;28;70317;-31
2024/03/31 07:14:15;;;;;;;5.15;4.70;;;;;;;33.98;60.71;100817.63;5012651;28;66981;-30
2024/03/31 07:16:47;;;;;;;4.82;4.53;;;;;;;34.04;60.51;100807.69;4993898;28;70143;-30
2024/03/31 07:19:19;;;;;;;4.60;4.40;;;;;;;34.04;60.56;100813.13;5012966;28;43109;-30
2024/03/31 07:21:48;;;;;;;3.90;3.70;;;;;;;33.91;60.88;100787.03;4992319;28;70255;-30
2024/03/31 07:24:17;;;;;;;4.50;4.30;;;;;;;34.01;60.03;100791.84;4996799;28;65959;-31
2024/03/31 07:26:46;;;;;;;4.82;4.53;;;;;;;34.07;60.56;100799.03;5013284;28;70483;-29
2024/03/31 07:29:16;;;;;;;4.10;3.80;;;;;;;34.08;59.82;100792.56;5032546;28;67235;-30
2024/03/31 07:31:47;;;;;;;4.63;4.25;;;;;;;34.11;60.34;100789.34;4973781;28;69969;-31
2024/03/31 07:34:17;;;;;;;4.97;4.55;;;;;;;34.09;59.90;100783.31;5004464;28;65344;-30
2024/03/31 07:36:47;;;;;;;4.75;4.35;;;;;;;34.10;59.94;100779.53;5030997;28;70608;-33
2024/03/31 07:39:17;;;;;;;4.25;4.05;;;;;;;34.08;60.01;100778.94;5035715;28;66164;-31
2024/03/31 07:41:47;;;;;;;;;;;;;;;34.05;57.53;100775.91;5031499;28;69313;-30
2024/03/31 07:44:16;;;;;;;4.07;3.88;;;;;;;34.19;59.20;100772.59;5038589;28;65716;-30
2024/03/31 07:46:47;;;;;;;5.25;4.78;;;;;;;34.24;59.84;100771.84;5035016;28;70405;-31
2024/03/31 07:49:18;;;;;;;4.80;4.50;;;;;;;34.20;59.63;100763.34;5026245;28;66505;-31
2024/03/31 07:51:47;;;;;;;7.60;4.07;;;;;;;34.23;59.83;100773.75;5039981;28;69994;-32
2024/03/31 07:54:16;;;;;;;4.35;4.05;;;;;;;34.20;59.37;100768.81;5022966;28;65409;-30
2024/03/31 07:56:45;;;;;;;5.38;4.05;;;;;;;34.28;58.92;100769.47;5027248;28;70480;-31
2024/03/31 07:59:14;;;;;;;4.28;4.05;;;;;;;34.34;59.16;100763.03;5034334;28;66967;-30
2024/03/31 08:01:44;;;;;;;5.53;4.30;;;;;;;34.34;58.50;100765.78;5019952;28;70299;-29
2024/03/31 08:04:13;;;;;;;4.32;4.03;;;;;;;34.34;59.35;100763.03;5035943;28;65750;-30
2024/03/31 08:06:43;;;;;;;3.80;3.60;;;;;;;34.40;59.03;100756.59;5026715;28;70594;-33
2024/03/31 08:09:12;;;;;;;4.38;4.00;;;;;;;34.33;58.49;100751.34;5020611;28;64976;-31
2024/03/31 08:11:41;;;;;;;3.63;3.42;;;;;;;34.41;59.08;100744.66;5025257;28;69241;-30
2024/03/31 08:14:13;;;;;;;3.75;3.55;;;;;;;34.42;58.19;100749.03;5028782;28;66274;-30
2024/03/31 08:16:43;;;;;;;6.03;3.75;;;;;;;34.48;58.86;100758.91;5021051;28;70626;-30
2024/03/31 08:19:12;;;;;;;4.53;4.10;;;;;;;34.51;58.69;100749.44;5022212;28;66282;-32
2024/03/31 08:21:42;;;;;;;3.92;3.72;;;;;;;34.52;57.89;100751.91;5033924;28;69157;-35
2024/03/31 08:24:11;;;;;;;4.60;3.30;;;;;;;34.56;58.76;100744.91;5036662;28;67139;-35
2024/03/31 08:26:43;;;;;;;4.00;3.70;;;;;;;34.55;57.30;100743.25;5025125;28;69746;-31
2024/03/31 08:29:14;;;;;;;4.43;4.07;;;;;;;34.60;57.57;100740.63;5027768;28;65698;-31
2024/03/31 08:31:43;;;;;;;8.13;3.78;;;;;;;34.65;57.86;100732.50;5024110;28;70823;-31
2024/03/31 08:34:13;;;;;;;4.05;3.75;;;;;;;34.60;57.13;100740.63;5038100;28;66991;-30
2024/03/31 08:36:58;;;;;;;3.90;3.70;;;;;;;34.68;57.05;100737.47;5026340;28;70103;-32
2024/03/31 08:39:27;;;;;;;4.28;3.97;;;;;;;34.72;57.53;100743.25;5033322;28;66839;-32
2024/03/31 08:42:22;;;;;;;4.53;4.13;;;;;;;34.76;57.81;100729.94;5028926;28;70169;-33
2024/03/31 08:44:56;;;;;;;3.45;3.25;;;;;;;34.80;57.37;100726.47;4992999;28;65934;-33
2024/03/31 08:47:31;;;;;;;3.80;3.60;;;;;;;34.79;56.34;100726.72;5012708;28;70028;-31
2024/03/31 08:50:00;;;;;;;7.18;3.50;;;;;;;34.88;57.98;100719.75;5011561;28;66678;-31
2024/03/31 08:52:29;;;;;;;5.45;3.75;;;;;;;34.72;57.96;100688.75;5049912;28;70124;-30
2024/03/31 08:55:02;;;;;;;7.77;4.00;;;;;;;34.93;57.41;100715.19;5031027;28;66893;-30
2024/03/31 08:57:32;;;;;;;13.52;3.92;;;;;;;34.96;58.47;100723.94;5029330;28;70342;-30
2024/03/31 09:00:01;;;;;;;7.57;3.67;;;;;;;34.95;57.86;100725.03;5021951;28;65973;-30
2024/03/31 09:02:38;;;;;;;7.05;4.10;;;;;;;34.98;57.57;100714.44;5022892;28;69734;-31
2024/03/31 09:05:08;;;;;;;10.95;4.18;;;;;;;35.03;58.08;100739.06;5024879;28;66786;-31
2024/03/31 09:07:37;;;;;;;4.28;3.65;;;;;;;35.01;57.51;100729.47;5037455;28;70425;-29
2024/03/31 09:10:07;;;;;;;11.05;4.45;;;;;;;35.01;57.13;100735.75;5031745;28;66575;-30
2024/03/31 09:12:39;;;;;;;8.73;4.70;;;;;;;35.11;58.30;100730.47;5036517;28;70406;-30
2024/03/31 09:15:09;;;;;;;20.65;4.95;;;;;;;35.07;57.90;100729.31;5034757;28;66584;-33
2024/03/31 09:17:38;;;;;;;13.82;5.10;;;;;;;35.07;57.36;100734.75;5021026;28;70065;-31
2024/03/31 09:20:07;;;;;;;7.40;5.82;;;;;;;35.10;58.42;100737.00;5020579;28;66622;-33
2024/03/31 09:22:42;;;;;;;12.32;5.30;;;;;;;35.14;58.23;100729.97;5018595;28;70405;-31
2024/03/31 09:25:13;;;;;;;10.60;6.82;;;;;;;35.25;60.87;100728.19;5021356;28;66119;-31
2024/03/31 09:27:42;;;;;;;10.75;7.53;;;;;;;35.39;62.35;100736.00;5028335;28;69679;-33
2024/03/31 09:30:12;;;;;;;10.88;7.32;;;;;;;35.51;62.86;100734.75;5037635;28;66185;-31
2024/03/31 09:32:42;;;;;;;8.27;7.57;;;;;;;35.57;63.16;100728.31;5018656;28;70351;-30
2024/03/31 09:35:14;;;;;;;7.78;7.00;;;;;;;35.55;64.45;100735.91;4987257;28;65979;-31
2024/03/31 09:37:43;;;;;;;;;;;;;;;35.67;64.32;100732.25;5029564;28;70120;-32
2024/03/31 09:40:13;;;;;;;8.73;7.22;;;;;;;35.69;64.19;100735.50;5015369;28;66933;-31
2024/03/31 09:42:44;;;;;;;7.72;7.13;;;;;;;35.68;65.01;100733.88;5035312;28;69296;-31
2024/03/31 09:45:15;;;;;;;8.63;7.88;;;;;;;35.77;65.10;100743.25;5020266;28;66416;-31
2024/03/31 09:47:48;;;;;;;15.25;7.43;;;;;;;35.74;64.94;100738.31;5020446;28;71451;-30
2024/03/31 09:50:38;;;;;;;9.88;7.40;;;;;;;35.74;65.61;100743.75;5028564;28;65521;-31
2024/03/31 09:53:12;;;;;;;15.52;8.10;;;;;;;35.75;67.37;100742.69;4998532;28;70234;-30
2024/03/31 09:55:44;;;;;;;14.63;7.88;;;;;;;35.82;67.18;100746.03;5033789;28;66186;-34
2024/03/31 09:58:16;;;;;;;7.85;7.25;;;;;;;35.84;66.83;100757.53;5012038;28;70464;-33
2024/03/31 10:00:48;;;;;;;14.73;7.75;;;;;;;35.91;66.51;100757.31;5021570;28;66133;-30
2024/03/31 10:03:41;;;;;;;8.48;7.28;;;;;;;35.86;68.34;100760.81;5020013;28;69921;-30
2024/03/31 10:06:12;;;;;;;8.13;7.25;;;;;;;35.87;67.35;100748.81;5031155;28;66029;-32
2024/03/31 10:08:43;;;;;;;9.93;7.38;;;;;;;35.91;67.24;100760.88;5023639;28;70329;-32
2024/03/31 10:11:13;;;;;;;7.85;7.13;;;;;;;35.91;67.65;100763.63;5000816;28;66300;-30
2024/03/31 10:13:43;;;;;;;7.93;7.25;;;;;;;35.85;68.69;100767.34;5029160;28;70464;-32
2024/03/31 10:16:16;;;;;;;11.83;7.73;;;;;;;35.92;68.33;100767.97;5025766;28;66101;-33
2024/03/31 10:18:46;;;;;;;9.30;6.50;;;;;;;35.84;68.39;100753.97;5022198;28;69978;-31
2024/03/31 10:21:16;;;;;;;13.43;7.13;;;;;;;35.84;68.76;100762.97;5025641;28;65322;-31
2024/03/31 10:23:47;;;;;;;7.57;6.97;;;;;;;35.87;68.32;100765.19;5010807;28;69526;-32
2024/03/31 10:26:16;;;;;;;7.13;6.57;;;;;;;35.84;67.72;100770.34;5003901;28;66110;-33
2024/03/31 10:28:49;;;;;;;8.15;6.82;;;;;;;35.84;67.93;100770.34;5036662;28;70080;-30
2024/03/31 10:31:20;;;;;;;10.27;6.32;;;;;;;35.82;67.43;100761.59;5033949;28;66104;-30
2024/03/31 10:33:49;;;;;;;7.90;6.43;;;;;;;35.77;67.83;100782.31;5024377;28;70501;-31
2024/03/31 10:36:19;;;;;;;6.47;5.93;;;;;;;35.78;67.73;100778.47;5019318;28;66426;-33
2024/03/31 10:38:49;;;;;;;9.48;6.20;;;;;;;35.66;68.32;100769.63;5021328;28;69615;-31
2024/03/31 10:41:18;;;;;;;7.18;6.00;;;;;;;35.65;68.02;100778.88;5018342;28;65869;-30
2024/03/31 10:43:47;;;;;;;18.98;5.45;;;;;;;35.71;68.48;100779.75;5021308;28;68861;-32
2024/03/31 10:46:18;;;;;;;17.35;5.95;;;;;;;35.72;69.68;100773.22;5034164;28;66483;-31
2024/03/31 10:48:57;;;;;;;9.43;5.47;;;;;;;35.51;70.81;100761.22;5046745;28;69793;-30
2024/03/31 10:51:27;;;;;;;11.07;5.35;;;;;;;35.71;69.19;100777.03;5046788;28;66591;-31
2024/03/31 10:53:56;;;;;;;12.68;6.43;;;;;;;35.64;69.49;100781.88;5031644;28;70087;-34
2024/03/31 10:56:27;;;;;;;9.93;6.10;;;;;;;35.50;70.45;100760.41;5027103;28;66213;-30
2024/03/31 10:59:06;;;;;;;9.70;5.32;;;;;;;35.64;71.23;100790.06;5021892;28;71387;-32
2024/03/31 11:01:40;;;;;;;7.15;5.20;;;;;;;35.61;70.25;100782.34;5053684;28;66643;-31
2024/03/31 11:04:20;;;;;;;5.63;5.13;;;;;;;35.66;71.42;100791.44;5032933;28;70412;-34
2024/03/31 11:06:51;;;;;;;5.45;4.97;;;;;;;35.66;71.12;100801.53;5035003;28;66379;-30
2024/03/31 11:09:21;;;;;;;11.60;5.40;;;;;;;35.57;70.53;100788.31;5039637;28;71410;-32
2024/03/31 11:11:50;;;;;;;9.70;5.38;;;;;;;35.60;70.65;100797.09;5013808;28;66014;-31
2024/03/31 11:14:24;;;;;;;8.32;4.85;;;;;;;35.37;72.02;100777.16;5021637;28;70350;-31
2024/03/31 11:16:54;;;;;;;5.82;5.32;;;;;;;35.60;71.45;100814.28;5028875;28;65991;-31
2024/03/31 11:19:26;;;;;;;5.18;4.68;;;;;;;35.60;71.32;100810.72;5030592;28;70085;-30
2024/03/31 11:22:06;;;;;;;6.40;5.20;;;;;;;35.56;71.31;100813.97;5046229;28;66028;-34
2024/03/31 11:24:39;;;;;;;10.75;5.32;;;;;;;35.55;71.72;100806.84;5012865;28;70303;-31
2024/03/31 11:27:10;;;;;;;9.43;5.22;;;;;;;35.45;71.46;100803.97;5022947;28;66550;-31
2024/03/31 11:29:40;;;;;;;6.95;5.30;;;;;;;35.54;71.57;100804.34;5050622;28;70098;-31
2024/03/31 11:32:11;;;;;;;7.35;5.57;;;;;;;35.35;71.98;100779.28;5031298;28;65850;-31
2024/03/31 11:34:44;;;;;;;9.30;5.30;;;;;;;35.52;72.00;100818.25;5018735;28;70044;-31